• Join FlightAware (Why Join?)
  • Login
  • US Flag 
05:48AM EDT


 

Airport Tracker/Info


-or-


 

Live Flight TrackerFlight Track Log ✈ VH-UUO ✈ 22-Apr-2013 ✈ YSBK / BWU - YMML / MEL

Flight Track Log - Related Links

Times and Time Zones

All times are in EDT time to prevent confusion due to time zone crossing. See the VH-UUO flight status page for this flight to view local times or setup timezone preferences in your user account.

Time Position Orientation Groundspeed Altitude Reporting Facility
EDT Latitude Longitude Course Direction KTS MPH feet Rate Location/Type
08:52AM -33.9128 150.9612 218° Southwest 135 155 1,000  Level Aus ATC (RADAR)
08:52AM -33.9254 150.9495 218° Southwest 158 182 1,200 1,740 Climbing Aus ATC (RADAR)
08:53AM -33.9529 150.9398 196° South 170 196 2,600 2,040 Climbing Aus ATC (RADAR)
08:53AM -33.9942 150.9243 197° South 168 193 4,300 1,860 Climbing Aus ATC (RADAR)
08:54AM -34.0168 150.9161 197° South 170 196 5,300 1,620 Climbing Aus ATC (RADAR)
08:55AM -34.0581 150.9012 197° South 183 211 6,500 1,560 Climbing Aus ATC (RADAR)
08:55AM -34.0703 150.8960 200° South 183 211 7,000 1,500 Climbing Aus ATC (RADAR)
08:55AM -34.0953 150.8842 201° Southwest 189 217 7,600 960 Climbing Aus ATC (RADAR)
08:57AM -34.1635 150.8547 200° South 214 246 8,700 840 Climbing Aus ATC (RADAR)
08:57AM -34.1779 150.8483 200° South 216 249 8,900 1,020 Climbing Aus ATC (RADAR)
08:57AM -34.2075 150.8365 198° South 223 257 9,500 1,200 Climbing Aus ATC (RADAR)
08:58AM -34.2565 150.8186 197° South 222 255 10,500 1,080 Climbing Aus ATC (RADAR)
08:59AM -34.2902 150.8048 199° South 220 253 11,100 840 Climbing Aus ATC (RADAR)
09:00AM -34.3343 150.7755 209° Southwest 220 253 11,700 720 Climbing Aus ATC (RADAR)
09:00AM -34.3582 150.7352 234° Southwest 214 246 12,200 720 Climbing Aus ATC (RADAR)
09:01AM -34.3963 150.6720 234° Southwest 210 242 13,000 720 Climbing Aus ATC (RADAR)
09:03AM -34.4418 150.5900 236° Southwest 217 250 14,000 480 Climbing Aus ATC (RADAR)
09:03AM -34.4679 150.5481 233° Southwest 231 266 14,000  Level Aus ATC (RADAR)
09:05AM -34.5128 150.4768 233° Southwest 244 281 14,000  Level Aus ATC (RADAR)
09:06AM -34.5636 150.3918 234° Southwest 244 281 14,000  Level Aus ATC (RADAR)
09:07AM -34.6004 150.3294 234° Southwest 244 281 14,000  Level Aus ATC (RADAR)
09:08AM -34.6420 150.2608 234° Southwest 249 287 14,000  Level Aus ATC (RADAR)
09:09AM -34.6952 150.1663 236° Southwest 251 289 14,000  Level Aus ATC (RADAR)
09:10AM -34.7420 150.0917 233° Southwest 252 290 14,000  Level Aus ATC (RADAR)
09:12AM -34.8063 149.9888 233° Southwest 252 290 14,000  Level Aus ATC (RADAR)
09:13AM -34.8495 149.9198 233° Southwest 254 292 14,000  Level Aus ATC (RADAR)
09:14AM -34.8918 149.8516 233° Southwest 249 287 14,000  Level Aus ATC (RADAR)
09:15AM -34.9396 149.7785 231° Southwest 254 292 14,000  Level Aus ATC (RADAR)
09:16AM -34.9813 149.7089 234° Southwest 251 289 14,000  Level Aus ATC (RADAR)
09:17AM -35.0272 149.6326 234° Southwest 252 290 14,000  Level Aus ATC (RADAR)
09:18AM -35.0714 149.5653 231° Southwest 251 289 14,000  Level Aus ATC (RADAR)
09:19AM -35.1149 149.4947 233° Southwest 257 296 14,000  Level Aus ATC (RADAR)
09:20AM -35.1604 149.4181 234° Southwest 254 292 14,000  Level Aus ATC (RADAR)
09:21AM -35.2025 149.3484 233° Southwest 251 289 14,000  Level Aus ATC (RADAR)
09:22AM -35.2447 149.2702 237° Southwest 253 291 14,000  Level Aus ATC (RADAR)
09:23AM -35.2846 149.2001 235° Southwest 246 283 14,000  Level Aus ATC (RADAR)
09:24AM -35.3279 149.1239 235° Southwest 249 287 14,000  Level Aus ATC (RADAR)
09:25AM -35.3710 149.0576 231° Southwest 247 284 14,000  Level Aus ATC (RADAR)
09:26AM -35.4272 148.9720 231° Southwest 255 293 14,000  Level Aus ATC (RADAR)
09:27AM -35.4628 148.9160 232° Southwest 250 288 14,000  Level Aus ATC (RADAR)
09:28AM -35.5061 148.8469 232° Southwest 253 291 14,000  Level Aus ATC (RADAR)
09:29AM -35.5527 148.7725 232° Southwest 253 291 14,000  Level Aus ATC (RADAR)
09:30AM -35.5954 148.7043 232° Southwest 250 288 14,000  Level Aus ATC (RADAR)
09:31AM -35.6473 148.6277 230° Southwest 248 285 14,000  Level Aus ATC (RADAR)
09:32AM -35.6943 148.5561 231° Southwest 248 285 14,000  Level Aus ATC (RADAR)
09:34AM -35.7533 148.4677 231° Southwest 248 285 14,000  Level Aus ATC (RADAR)
09:34AM -35.7815 148.4230 232° Southwest 248 285 14,000  Level Aus ATC (RADAR)
09:36AM -35.8302 148.3529 229° Southwest 246 283 14,000  Level Aus ATC (RADAR)
09:37AM -35.8909 148.2585 232° Southwest 247 284 14,000  Level Aus ATC (RADAR)
09:38AM -35.9232 148.2095 231° Southwest 243 280 14,000  Level Aus ATC (RADAR)
09:39AM -35.9657 148.1423 232° Southwest 246 283 14,000  Level Aus ATC (RADAR)
09:40AM -36.0240 148.0546 231° Southwest 245 282 14,000  Level Aus ATC (RADAR)
09:41AM -36.0675 147.9879 231° Southwest 248 285 14,000  Level Aus ATC (RADAR)
09:42AM -36.1173 147.9099 232° Southwest 247 284 14,000  Level Aus ATC (RADAR)
09:43AM -36.1674 147.8316 232° Southwest 246 283 14,000  Level Aus ATC (RADAR)
09:44AM -36.2089 147.7635 233° Southwest 245 282 14,000  Level Aus ATC (RADAR)
09:45AM -36.2484 147.6830 239° Southwest 246 283 14,000  Level Aus ATC (RADAR)
09:46AM -36.2876 147.6047 238° Southwest 246 283 14,000  Level Aus ATC (RADAR)
09:48AM -36.3256 147.5251 239° Southwest 246 283 14,000  Level Aus ATC (RADAR)
09:49AM -36.3609 147.4527 239° Southwest 244 281 14,000  Level Aus ATC (RADAR)
09:50AM -36.3994 147.3746 238° Southwest 243 280 14,000  Level Aus ATC (RADAR)
09:51AM -36.4397 147.2988 237° Southwest 241 277 14,000  Level Aus ATC (RADAR)
09:52AM -36.4776 147.2290 236° Southwest 243 280 14,000  Level Aus ATC (RADAR)
09:53AM -36.5165 147.1610 235° Southwest 240 276 14,000  Level Aus ATC (RADAR)
09:54AM -36.5570 147.0853 236° Southwest 241 277 14,000  Level Aus ATC (RADAR)
09:55AM -36.5968 147.0169 234° Southwest 243 280 14,000  Level Aus ATC (RADAR)
09:56AM -36.6378 146.9401 236° Southwest 245 282 14,000  Level Aus ATC (RADAR)
09:57AM -36.6815 146.8656 234° Southwest 247 284 14,000  Level Aus ATC (RADAR)
09:58AM -36.7172 146.7936 238° Southwest 245 282 14,000  Level Aus ATC (RADAR)
09:59AM -36.7553 146.7234 236° Southwest 242 278 14,000  Level Aus ATC (RADAR)
10:00AM -36.7937 146.6455 238° Southwest 243 280 14,000  Level Aus ATC (RADAR)
10:01AM -36.8290 146.5728 239° Southwest 244 281 14,000  Level Aus ATC (RADAR)
10:02AM -36.8692 146.4949 237° Southwest 244 281 14,000 -60 Level Aus ATC (RADAR)
10:03AM -36.9050 146.4220 238° Southwest 246 283 13,900 -60 Descending Aus ATC (RADAR)
10:04AM -36.9441 146.3516 235° Southwest 247 284 13,900  Level Aus ATC (RADAR)
10:05AM -36.9799 146.2789 238° Southwest 244 281 13,900  Level Aus ATC (RADAR)
10:06AM -37.0201 146.2019 237° Southwest 244 281 13,900  Level Aus ATC (RADAR)
10:07AM -37.0563 146.1297 238° Southwest 245 282 13,900  Level Aus ATC (RADAR)
10:08AM -37.1010 146.0475 236° Southwest 245 282 13,900  Level Aus ATC (RADAR)
10:09AM -37.1415 145.9692 237° Southwest 246 283 13,900  Level Aus ATC (RADAR)
10:11AM -37.1786 145.8921 239° Southwest 237 273 13,900  Level Aus ATC (RADAR)
10:13AM -37.2450 145.7615 232° Southwest  Level FlightAware Approximate
10:20AM -37.4698 145.2852 241° Southwest  Level FlightAware Approximate
10:21AM -37.4999 145.2154 241° Southwest  Level FlightAware Approximate
10:22AM -37.5300 145.1456 241° Southwest  Level FlightAware Approximate
10:23AM -37.5601 145.0757 241° Southwest  Level FlightAware Approximate
10:24AM -37.5901 145.0058 242° Southwest  Level FlightAware Approximate
10:25AM -37.6201 144.9358 242° Southwest  Level FlightAware Approximate
10:26AM -37.6500 144.8657 242° Southwest  Level FlightAware Approximate
10:27AM -37.6734 144.8434 176° South  Level FlightAware Approximate
10:28AM -37.6733 144.8433 176° South  Level Estimated
10:29AM -37.6733 144.8433 176° South  Level Estimated
10:30AM -37.6733 144.8433 176° South  Level Estimated
10:31AM -37.6733 144.8433 176° South  Level Estimated
10:32AM -37.6733 144.8433 176° South  Level Estimated
10:33AM -37.6733 144.8433 176° South  Level Estimated
10:34AM -37.6733 144.8433 176° South  Level Estimated
10:35AM -37.6733 144.8433 176° South  Level Estimated
10:36AM -37.6733 144.8433 176° South  Level Estimated
10:37AM -37.6733 144.8433 176° South  Level Estimated
10:38AM -37.6733 144.8433 176° South  Level Estimated
10:39AM -37.6733 144.8433 176° South  Level Estimated
10:40AM -37.6733 144.8433 176° South  Level Estimated
10:41AM -37.6733 144.8433 176° South  Level Estimated
10:42AM -37.6733 144.8433 176° South  Level Estimated
10:43AM -37.6733 144.8433 176° South  Level Estimated
10:44AM -37.6733 144.8433 176° South  Level Estimated
10:45AM -37.6733 144.8433 176° South  Level Estimated
10:46AM -37.6733 144.8433 176° South  Level Estimated
10:47AM -37.6733 144.8433 176° South  Level Estimated